Time;durP1;ratioP1;P1;durP2;ratioP2;P2;SDS_P1;SDS_P2;PMS_P1;PMS_P2;Temp;Humidity;BMP_temperature;BMP_pressure;BME280_temperature;BME280_humidity;BME280_pressure;Samples;Min_cycle;Max_cycle;Signal;HPM_P1;HPM_P2
2021/06/24 00:01:14;;;;;;;1999.90;999.90;;;10.60;99.90;;;;;;6067171;23;20232;-55
2021/06/24 00:03:41;;;;;;;1999.90;999.90;;;10.70;99.90;;;;;;6066418;23;20836;-51
2021/06/24 00:06:10;;;;;;;1999.90;999.90;;;10.70;99.90;;;;;;6066095;23;20187;-53
2021/06/24 00:08:36;;;;;;;1999.90;999.90;;;10.60;99.90;;;;;;6067221;23;20160;-52
2021/06/24 00:11:06;;;;;;;1999.90;999.90;;;10.60;99.90;;;;;;6066397;23;20212;-51
2021/06/24 00:13:34;;;;;;;1999.90;999.90;;;10.50;99.90;;;;;;6066539;23;20149;-51
2021/06/24 00:16:01;;;;;;;1999.90;999.90;;;10.50;99.90;;;;;;6066733;23;20203;-51
2021/06/24 00:18:28;;;;;;;1999.90;999.90;;;10.50;99.90;;;;;;6066514;23;20269;-51
2021/06/24 00:20:55;;;;;;;1999.90;999.90;;;10.50;99.90;;;;;;6066657;23;20151;-50
2021/06/24 00:23:22;;;;;;;1999.90;999.90;;;10.50;99.90;;;;;;6066478;23;20179;-51
2021/06/24 00:25:49;;;;;;;1999.90;999.90;;;10.50;99.90;;;;;;6066648;23;20153;-50
2021/06/24 00:28:17;;;;;;;1999.90;999.90;;;10.40;99.90;;;;;;6066609;23;20481;-51
2021/06/24 00:30:49;;;;;;;1999.90;999.90;;;10.40;99.90;;;;;;6066299;23;20223;-51
2021/06/24 00:33:16;;;;;;;1999.90;999.90;;;10.30;99.90;;;;;;6067050;23;20153;-53
2021/06/24 00:35:44;;;;;;;1999.90;999.90;;;10.30;99.90;;;;;;6068878;23;20466;-61
2021/06/24 00:38:11;;;;;;;1999.90;999.90;;;10.20;99.90;;;;;;6068538;23;20141;-50
2021/06/24 00:40:39;;;;;;;1999.90;999.90;;;10.20;99.90;;;;;;6068377;23;20182;-57
2021/06/24 00:43:08;;;;;;;1999.90;999.90;;;10.10;99.90;;;;;;6068826;23;20204;-50
2021/06/24 00:45:35;;;;;;;1999.90;999.90;;;10.10;99.90;;;;;;6068410;23;20148;-51
2021/06/24 00:48:04;;;;;;;1999.90;999.90;;;10.10;99.90;;;;;;6068384;23;20144;-53
2021/06/24 00:50:31;;;;;;;1999.90;999.90;;;10.10;99.90;;;;;;6068717;23;20199;-50
2021/06/24 00:52:57;;;;;;;1999.90;999.90;;;10.10;99.90;;;;;;6068116;23;20149;-60
2021/06/24 00:55:43;;;;;;;1999.90;999.90;;;10.10;99.90;;;;;;6068427;23;20223;-52
2021/06/24 00:58:13;;;;;;;1999.90;999.90;;;10.00;99.90;;;;;;6068542;23;20179;-54
2021/06/24 01:00:42;;;;;;;1999.90;999.90;;;10.00;99.90;;;;;;6068420;23;20137;-52
2021/06/24 01:03:10;;;;;;;1999.90;999.90;;;10.00;99.90;;;;;;6068406;23;20152;-51
2021/06/24 01:05:38;;;;;;;1999.90;999.90;;;10.00;99.90;;;;;;6068491;23;20153;-50
2021/06/24 01:08:10;;;;;;;1999.90;999.90;;;9.90;99.90;;;;;;6068109;23;20149;-53
2021/06/24 01:10:38;;;;;;;1999.90;999.90;;;9.90;99.90;;;;;;6068889;23;20181;-50
2021/06/24 01:13:06;;;;;;;1999.90;999.90;;;9.90;99.90;;;;;;6068214;23;20148;-53
2021/06/24 01:15:33;;;;;;;1999.90;999.90;;;9.90;99.90;;;;;;6067925;23;20749;-54
2021/06/24 01:18:01;;;;;;;1999.90;999.90;;;9.80;99.90;;;;;;6068608;23;20180;-51
2021/06/24 01:20:34;;;;;;;1999.90;999.90;;;9.80;99.90;;;;;;6068000;23;20186;-51
2021/06/24 01:23:02;;;;;;;1999.90;999.90;;;9.90;99.90;;;;;;6068255;23;20576;-50
2021/06/24 01:25:29;;;;;;;1999.90;999.90;;;9.90;99.90;;;;;;6067832;23;20219;-51
2021/06/24 01:28:01;;;;;;;1999.90;999.90;;;9.90;99.90;;;;;;6068032;23;20451;-52
2021/06/24 01:30:28;;;;;;;1999.90;999.90;;;9.80;99.90;;;;;;6068019;23;20271;-51
2021/06/24 01:32:56;;;;;;;1999.90;999.90;;;9.80;99.90;;;;;;6068140;23;20148;-56
2021/06/24 01:35:28;;;;;;;1999.90;999.90;;;9.70;99.90;;;;;;6068148;23;20172;-51
2021/06/24 01:38:00;;;;;;;1999.90;999.90;;;9.60;99.90;;;;;;6068285;23;20216;-53
2021/06/24 01:40:28;;;;;;;1999.90;999.90;;;9.70;99.90;;;;;;6068260;23;20155;-54
2021/06/24 01:42:57;;;;;;;1999.90;999.90;;;9.70;99.90;;;;;;6067877;23;20226;-51
2021/06/24 01:45:24;;;;;;;1999.90;999.90;;;9.70;99.90;;;;;;6068386;23;20153;-53
2021/06/24 01:47:51;;;;;;;1999.90;999.90;;;9.70;99.90;;;;;;6068059;23;20160;-51
2021/06/24 01:50:18;;;;;;;1999.90;999.90;;;9.60;99.90;;;;;;6067565;23;20183;-53
2021/06/24 01:52:47;;;;;;;1999.90;999.90;;;9.60;99.90;;;;;;6068361;23;20152;-53
2021/06/24 01:55:16;;;;;;;1999.90;999.90;;;9.50;99.90;;;;;;6067545;23;20148;-51
2021/06/24 01:57:45;;;;;;;1999.90;999.90;;;9.40;99.90;;;;;;6067910;23;20149;-54
2021/06/24 02:00:14;;;;;;;1999.90;999.90;;;9.40;99.90;;;;;;6067970;23;20208;-55
2021/06/24 02:02:43;;;;;;;1999.90;999.90;;;9.40;99.90;;;;;;6067847;23;20152;-54
2021/06/24 02:05:11;;;;;;;1999.90;999.90;;;9.40;99.90;;;;;;6067954;23;20152;-55
2021/06/24 02:07:44;;;;;;;1999.90;999.90;;;9.40;99.90;;;;;;6067769;23;20149;-53
2021/06/24 02:10:11;;;;;;;1999.90;999.90;;;9.40;99.90;;;;;;6067549;23;20173;-54
2021/06/24 02:12:39;;;;;;;1999.90;999.90;;;9.40;99.90;;;;;;6067750;23;20183;-53
2021/06/24 02:15:09;;;;;;;1999.90;999.90;;;9.40;99.90;;;;;;6067606;23;20172;-54
2021/06/24 02:17:36;;;;;;;1999.90;999.90;;;9.30;99.90;;;;;;6067435;23;20149;-52
2021/06/24 02:20:09;;;;;;;1999.90;999.90;;;9.40;99.90;;;;;;6068055;23;20155;-53
2021/06/24 02:22:36;;;;;;;1999.90;999.90;;;9.40;99.90;;;;;;6067461;23;20659;-55
2021/06/24 02:25:05;;;;;;;1999.90;999.90;;;9.40;99.90;;;;;;6067197;23;20185;-56
2021/06/24 02:27:31;;;;;;;1999.90;999.90;;;9.30;99.90;;;;;;6068026;23;20609;-51
2021/06/24 02:29:58;;;;;;;1999.90;999.90;;;9.30;99.90;;;;;;6067347;23;20232;-51
2021/06/24 02:32:26;;;;;;;1999.90;999.90;;;9.30;99.90;;;;;;6067645;23;20175;-52
2021/06/24 02:34:53;;;;;;;1999.90;999.90;;;9.20;99.90;;;;;;6067884;23;20145;-54
2021/06/24 02:37:20;;;;;;;1999.90;999.90;;;9.10;99.90;;;;;;6067488;23;20168;-52
2021/06/24 02:39:47;;;;;;;1999.90;999.90;;;9.00;99.90;;;;;;6067721;23;20210;-51
2021/06/24 02:42:14;;;;;;;1999.90;999.90;;;8.90;99.90;;;;;;6067345;23;20223;-51
2021/06/24 02:44:42;;;;;;;1999.90;999.90;;;8.90;99.90;;;;;;6067421;23;20145;-51
2021/06/24 02:47:09;;;;;;;1999.90;999.90;;;8.90;99.90;;;;;;6067182;23;20599;-52
2021/06/24 02:49:36;;;;;;;1999.90;999.90;;;8.80;99.90;;;;;;6067606;23;20155;-51
2021/06/24 02:52:03;;;;;;;1999.90;999.90;;;8.90;99.90;;;;;;6067213;23;20177;-54
2021/06/24 02:54:30;;;;;;;1999.90;999.90;;;8.80;99.90;;;;;;6067681;23;20149;-54
2021/06/24 02:57:00;;;;;;;1999.90;999.90;;;8.80;99.90;;;;;;6066972;23;20149;-54
2021/06/24 02:59:28;;;;;;;1999.90;999.90;;;8.70;99.90;;;;;;6066972;23;20148;-54
2021/06/24 03:01:54;;;;;;;1999.90;999.90;;;8.70;99.90;;;;;;6067883;23;20145;-53
2021/06/24 03:04:22;;;;;;;1999.90;999.90;;;8.70;99.90;;;;;;6066926;23;20588;-52
2021/06/24 03:06:50;;;;;;;1999.90;999.90;;;8.70;99.90;;;;;;6067026;23;20476;-53
2021/06/24 03:09:18;;;;;;;1999.90;999.90;;;8.70;99.90;;;;;;6067557;23;20183;-55
2021/06/24 03:11:45;;;;;;;1999.90;999.90;;;8.60;99.90;;;;;;6066855;23;20215;-53
2021/06/24 03:14:11;;;;;;;1999.90;999.90;;;8.60;99.90;;;;;;6067150;23;20199;-54
2021/06/24 03:16:38;;;;;;;1999.90;999.90;;;8.60;99.90;;;;;;6067215;23;20584;-55
2021/06/24 03:19:06;;;;;;;1999.90;999.90;;;8.50;99.90;;;;;;6067099;23;20155;-52
2021/06/24 03:21:33;;;;;;;1999.90;999.90;;;8.50;99.90;;;;;;6067229;23;20204;-54
2021/06/24 03:24:01;;;;;;;1999.90;999.90;;;8.50;99.90;;;;;;6066965;23;20192;-58
2021/06/24 03:26:27;;;;;;;1999.90;999.90;;;8.50;99.90;;;;;;6066954;23;20159;-56
2021/06/24 03:28:54;;;;;;;1999.90;999.90;;;8.60;99.90;;;;;;6067221;23;20529;-52
2021/06/24 03:31:21;;;;;;;1999.90;999.90;;;8.60;99.90;;;;;;6067100;23;20184;-52
2021/06/24 03:33:48;;;;;;;1999.90;999.90;;;8.60;99.90;;;;;;6066797;23;20148;-55
2021/06/24 03:36:15;;;;;;;1999.90;999.90;;;8.60;99.90;;;;;;6067287;23;20148;-52
2021/06/24 03:38:44;;;;;;;1999.90;999.90;;;8.60;99.90;;;;;;6066928;23;20497;-55
2021/06/24 03:41:12;;;;;;;1999.90;999.90;;;8.70;99.90;;;;;;6066807;23;20584;-53
2021/06/24 03:43:39;;;;;;;1999.90;999.90;;;8.70;99.90;;;;;;6067109;23;20195;-52
2021/06/24 03:46:06;;;;;;;1999.90;999.90;;;8.80;99.90;;;;;;6066526;23;20606;-54
2021/06/24 03:48:33;;;;;;;1999.90;999.90;;;8.80;99.90;;;;;;6066691;23;20152;-52
2021/06/24 03:51:00;;;;;;;1999.90;999.90;;;8.80;99.90;;;;;;6066970;23;20191;-54
2021/06/24 03:53:27;;;;;;;1999.90;999.90;;;8.80;99.90;;;;;;6066410;23;20160;-56
2021/06/24 03:55:54;;;;;;;1999.90;999.90;;;8.80;99.90;;;;;;6067071;23;20159;-52
2021/06/24 03:58:21;;;;;;;1999.90;999.90;;;8.80;99.90;;;;;;6066748;23;20155;-53
2021/06/24 04:00:50;;;;;;;1999.90;999.90;;;8.80;99.90;;;;;;6066782;23;20211;-55
2021/06/24 04:03:17;;;;;;;1999.90;999.90;;;8.70;99.90;;;;;;6066778;23;20611;-53
2021/06/24 04:05:44;;;;;;;1999.90;999.90;;;8.70;99.90;;;;;;6066913;23;20152;-53
2021/06/24 04:08:12;;;;;;;1999.90;999.90;;;8.60;99.90;;;;;;6066597;23;20187;-53
2021/06/24 04:10:39;;;;;;;1999.90;999.90;;;8.50;99.90;;;;;;6066841;23;20500;-53
2021/06/24 04:13:06;;;;;;;1999.90;999.90;;;8.50;99.90;;;;;;6066648;23;20153;-54
2021/06/24 04:15:34;;;;;;;1999.90;999.90;;;8.50;99.90;;;;;;6066341;23;20588;-51
2021/06/24 04:18:03;;;;;;;1999.90;999.90;;;8.40;99.90;;;;;;6067107;23;20145;-54
2021/06/24 04:20:31;;;;;;;1999.90;999.90;;;8.40;99.90;;;;;;6066298;23;20155;-53
2021/06/24 04:22:58;;;;;;;1999.90;999.90;;;8.40;99.90;;;;;;6066489;23;20231;-53
2021/06/24 04:25:26;;;;;;;1999.90;999.90;;;8.30;99.90;;;;;;6062906;23;20192;-54
2021/06/24 04:27:54;;;;;;;1999.90;999.90;;;8.30;99.90;;;;;;6066491;23;20152;-52
2021/06/24 04:30:21;;;;;;;1999.90;999.90;;;8.30;99.90;;;;;;6066541;23;20622;-53
2021/06/24 04:32:51;;;;;;;1999.90;999.90;;;8.20;99.90;;;;;;6066796;23;20187;-53
2021/06/24 04:35:18;;;;;;;1999.90;999.90;;;8.30;99.90;;;;;;6066420;23;20621;-55
2021/06/24 04:37:45;;;;;;;1999.90;999.90;;;8.20;99.90;;;;;;6066732;23;20490;-52
2021/06/24 04:40:12;;;;;;;1999.90;999.90;;;8.20;99.90;;;;;;6066449;23;20156;-53
2021/06/24 04:42:39;;;;;;;1999.90;999.90;;;8.20;99.90;;;;;;6066535;23;20195;-56
2021/06/24 04:45:08;;;;;;;1999.90;999.90;;;8.20;99.90;;;;;;6066576;23;20183;-54
2021/06/24 04:47:35;;;;;;;1999.90;999.90;;;8.10;99.90;;;;;;6066573;23;20148;-55
2021/06/24 04:50:03;;;;;;;1999.90;999.90;;;8.10;99.90;;;;;;6065966;23;20163;-55
2021/06/24 04:52:29;;;;;;;1999.90;999.90;;;8.10;99.90;;;;;;6066634;23;20149;-55
2021/06/24 04:54:56;;;;;;;1999.90;999.90;;;8.20;99.90;;;;;;6066380;23;20164;-51
2021/06/24 04:57:23;;;;;;;1999.90;999.90;;;8.00;99.90;;;;;;6066064;23;20159;-54
2021/06/24 04:59:50;;;;;;;1999.90;999.90;;;8.00;99.90;;;;;;6066832;23;20647;-54
2021/06/24 05:02:17;;;;;;;1999.90;999.90;;;7.90;99.90;;;;;;6066025;23;20159;-52
2021/06/24 05:04:44;;;;;;;1999.90;999.90;;;8.00;99.90;;;;;;6066205;23;20253;-53
2021/06/24 05:07:11;;;;;;;1999.90;999.90;;;8.00;99.90;;;;;;6066625;23;20148;-55
2021/06/24 05:09:41;;;;;;;1999.90;999.90;;;8.10;99.90;;;;;;6066360;23;20153;-53
2021/06/24 05:12:10;;;;;;;1999.90;999.90;;;8.00;99.90;;;;;;6066299;23;20646;-56
2021/06/24 05:14:38;;;;;;;1999.90;999.90;;;8.00;99.90;;;;;;6066081;23;20160;-53
2021/06/24 05:17:07;;;;;;;1999.90;999.90;;;8.00;99.90;;;;;;6066256;23;20164;-53
2021/06/24 05:19:34;;;;;;;1999.90;999.90;;;8.00;99.90;;;;;;6067097;23;20242;-52
2021/06/24 05:22:01;;;;;;;1999.90;999.90;;;8.10;99.90;;;;;;6068302;23;20144;-51
2021/06/24 05:24:28;;;;;;;1999.90;999.90;;;8.20;99.90;;;;;;6067960;23;20203;-54
2021/06/24 05:26:55;;;;;;;1999.90;999.90;;;8.10;99.90;;;;;;6068403;23;20157;-60
2021/06/24 05:29:22;;;;;;;1999.90;999.90;;;8.00;99.90;;;;;;6067906;23;20231;-53
2021/06/24 05:31:49;;;;;;;1999.90;999.90;;;8.10;99.90;;;;;;6067704;23;20212;-53
2021/06/24 05:34:16;;;;;;;1999.90;999.90;;;8.20;99.90;;;;;;6068274;23;20585;-51
2021/06/24 05:36:43;;;;;;;1999.90;999.90;;;8.20;99.90;;;;;;6067547;23;20172;-53
2021/06/24 05:39:09;;;;;;;1999.90;999.90;;;8.10;99.90;;;;;;6067589;23;20228;-53
2021/06/24 05:41:36;;;;;;;1999.90;999.90;;;8.00;99.90;;;;;;6068143;23;20159;-51
2021/06/24 05:44:03;;;;;;;1999.90;999.90;;;8.10;99.90;;;;;;6067330;23;20151;-56
2021/06/24 05:46:30;;;;;;;1999.90;999.90;;;8.20;99.90;;;;;;6067520;23;20172;-54
2021/06/24 05:48:57;;;;;;;1999.90;999.90;;;8.10;99.90;;;;;;6067932;23;20145;-55
2021/06/24 05:51:24;;;;;;;1999.90;999.90;;;8.10;99.90;;;;;;6067353;23;20208;-54
2021/06/24 05:53:51;;;;;;;1999.90;999.90;;;8.00;99.90;;;;;;6067763;23;20192;-52
2021/06/24 05:56:20;;;;;;;1999.90;999.90;;;8.00;99.90;;;;;;6067456;23;20163;-54
2021/06/24 05:58:47;;;;;;;1999.90;999.90;;;8.00;99.90;;;;;;6067742;23;20148;-53
2021/06/24 06:01:15;;;;;;;1999.90;999.90;;;8.10;99.90;;;;;;6067608;23;20162;-52
2021/06/24 06:03:41;;;;;;;1999.90;999.90;;;8.00;99.90;;;;;;6067510;23;20157;-55
2021/06/24 06:06:08;;;;;;;1999.90;999.90;;;8.10;99.90;;;;;;6067433;23;20153;-54
2021/06/24 06:08:35;;;;;;;1999.90;999.90;;;8.10;99.90;;;;;;6067814;23;20504;-56
2021/06/24 06:11:02;;;;;;;1999.90;999.90;;;8.20;99.90;;;;;;6067504;23;20493;-47
2021/06/24 06:13:29;;;;;;;1999.90;999.90;;;8.20;99.90;;;;;;6067472;23;20149;-48
2021/06/24 06:15:56;;;;;;;1999.90;999.90;;;8.40;99.90;;;;;;6067751;23;20484;-63
2021/06/24 06:18:26;;;;;;;1999.90;999.90;;;8.70;99.90;;;;;;6041596;23;20156;-46
2021/06/24 06:20:56;;;;;;;1999.90;999.90;;;8.80;99.90;;;;;;6067318;23;20584;-50
2021/06/24 06:23:24;;;;;;;1999.90;999.90;;;9.00;99.90;;;;;;6067598;23;20156;-54
2021/06/24 06:25:52;;;;;;;1999.90;999.90;;;9.10;99.90;;;;;;6067250;23;20156;-48
2021/06/24 06:28:20;;;;;;;1999.90;999.90;;;9.10;99.90;;;;;;6064883;23;20149;-49
2021/06/24 06:30:48;;;;;;;1999.90;999.90;;;9.00;99.90;;;;;;6040841;23;20187;-48
2021/06/24 06:33:16;;;;;;;1999.90;999.90;;;9.00;99.90;;;;;;6066696;23;20164;-57
2021/06/24 06:35:44;;;;;;;1999.90;999.90;;;9.00;99.90;;;;;;6066190;23;20180;-56
2021/06/24 06:38:11;;;;;;;1999.90;999.90;;;9.10;99.90;;;;;;6066253;23;20161;-54
2021/06/24 06:40:41;;;;;;;1999.90;999.90;;;9.40;99.90;;;;;;6066182;23;20148;-46
2021/06/24 06:43:08;;;;;;;1999.90;999.90;;;10.70;99.90;;;;;;6066022;23;20270;-50
2021/06/24 06:45:36;;;;;;;1999.90;999.90;;;10.50;99.90;;;;;;6066306;23;20165;-48
2021/06/24 06:48:03;;;;;;;1999.90;999.90;;;10.00;99.90;;;;;;6065952;23;20187;-48
2021/06/24 06:50:31;;;;;;;1999.90;999.90;;;9.70;99.90;;;;;;6066586;23;20180;-48
2021/06/24 06:52:58;;;;;;;1999.90;999.90;;;9.50;99.90;;;;;;6065673;23;20525;-47
2021/06/24 06:55:31;;;;;;;1999.90;999.90;;;9.40;99.90;;;;;;6065812;23;20163;-49
2021/06/24 06:57:58;;;;;;;1999.90;999.90;;;9.60;99.90;;;;;;6066698;23;20137;-49
2021/06/24 07:00:28;;;;;;;1999.90;999.90;;;9.60;99.90;;;;;;6066023;23;20144;-48
2021/06/24 07:02:58;;;;;;;1999.90;999.90;;;9.40;99.90;;;;;;6066003;23;20596;-52
2021/06/24 07:05:25;;;;;;;1999.90;999.90;;;9.40;99.90;;;;;;6040813;23;20160;-48
2021/06/24 07:07:53;;;;;;;1999.90;999.90;;;9.60;99.90;;;;;;6065845;23;20153;-48
2021/06/24 07:10:20;;;;;;;1999.90;999.90;;;10.50;99.90;;;;;;6065939;23;20218;-49
2021/06/24 07:12:48;;;;;;;1999.90;999.90;;;10.60;99.90;;;;;;6065894;23;20678;-48
2021/06/24 07:15:15;;;;;;;1999.90;999.90;;;11.00;99.90;;;;;;6065399;23;20240;-46
2021/06/24 07:17:42;;;;;;;1999.90;999.90;;;11.10;99.90;;;;;;6065547;23;20228;-46
2021/06/24 07:20:10;;;;;;;1999.90;999.90;;;11.20;99.90;;;;;;6065267;23;20589;-49
2021/06/24 07:22:37;;;;;;;1999.90;999.90;;;11.30;99.90;;;;;;6065359;23;20145;-47
2021/06/24 07:25:05;;;;;;;1999.90;999.90;;;11.60;99.90;;;;;;6065397;23;20707;-55
2021/06/24 07:27:34;;;;;;;1999.90;999.90;;;11.70;99.90;;;;;;6065569;23;20227;-44
2021/06/24 07:30:00;;;;;;;1999.90;999.90;;;11.80;99.90;;;;;;6065239;23;20149;-46
2021/06/24 07:32:27;;;;;;;1999.90;999.90;;;12.60;99.90;;;;;;6065912;23;20287;-42
2021/06/24 07:34:54;;;;;;;1999.90;999.90;;;13.00;99.90;;;;;;6065070;23;20156;-45
2021/06/24 07:37:21;;;;;;;1999.90;999.90;;;13.20;99.90;;;;;;6065315;23;20145;-44
2021/06/24 07:39:48;;;;;;;1999.90;999.90;;;14.00;99.90;;;;;;6065687;23;20167;-51
2021/06/24 07:42:16;;;;;;;1999.90;999.90;;;14.30;99.90;;;;;;6064882;23;20576;-53
2021/06/24 07:44:43;;;;;;;1999.90;999.90;;;14.40;99.90;;;;;;6064967;23;20239;-56
2021/06/24 07:47:09;;;;;;;1999.90;999.90;;;14.30;99.90;;;;;;6066167;23;20144;-45
2021/06/24 07:49:36;;;;;;;1999.90;999.90;;;14.20;99.90;;;;;;6065403;23;20528;-51
2021/06/24 07:52:03;;;;;;;1999.90;999.90;;;13.80;99.90;;;;;;6065357;23;20592;-43
2021/06/24 07:54:30;;;;;;;1999.90;999.90;;;14.30;99.90;;;;;;6065733;23;20149;-53
2021/06/24 07:56:57;;;;;;;1999.90;999.90;;;13.90;99.90;;;;;;6065525;23;20623;-57
2021/06/24 07:59:24;;;;;;;1999.90;999.90;;;13.20;99.90;;;;;;6065401;23;20487;-47
2021/06/24 08:01:50;;;;;;;1999.90;999.90;;;12.90;99.90;;;;;;6065780;23;20579;-60
2021/06/24 08:04:17;;;;;;;1999.90;999.90;;;12.90;99.90;;;;;;6065410;23;20160;-52
2021/06/24 08:06:44;;;;;;;1999.90;999.90;;;12.70;99.90;;;;;;6065394;23;20184;-57
2021/06/24 08:09:13;;;;;;;1999.90;999.90;;;13.10;99.90;;;;;;6065788;23;20153;-64
2021/06/24 08:11:41;;;;;;;1999.90;999.90;;;13.80;99.90;;;;;;6065381;23;20773;-46
2021/06/24 08:14:08;;;;;;;1999.90;999.90;;;13.80;99.90;;;;;;6065173;23;20232;-47
2021/06/24 08:16:35;;;;;;;1999.90;999.90;;;13.50;99.90;;;;;;6039745;23;20161;-45
2021/06/24 08:19:04;;;;;;;1999.90;999.90;;;13.00;99.90;;;;;;6065258;23;20504;-44
2021/06/24 08:21:31;;;;;;;1999.90;999.90;;;12.80;99.90;;;;;;6065589;23;20153;-52
2021/06/24 08:23:58;;;;;;;1999.90;999.90;;;12.90;99.90;;;;;;6065109;23;20188;-52
2021/06/24 08:26:24;;;;;;;1999.90;999.90;;;12.50;99.90;;;;;;6065370;23;20224;-46
2021/06/24 08:28:51;;;;;;;1999.90;999.90;;;12.30;99.90;;;;;;6065311;23;20149;-46
2021/06/24 08:31:18;;;;;;;1999.90;999.90;;;12.30;99.90;;;;;;6039183;23;20228;-55
2021/06/24 08:33:47;;;;;;;1999.90;999.90;;;12.30;99.90;;;;;;6065140;23;20172;-45
2021/06/24 08:36:14;;;;;;;1999.90;999.90;;;12.40;99.90;;;;;;6065688;23;20155;-53
2021/06/24 08:38:40;;;;;;;1999.90;999.90;;;12.40;99.90;;;;;;6064783;23;20607;-57
2021/06/24 08:41:12;;;;;;;1999.90;999.90;;;12.40;99.90;;;;;;6064900;23;20651;-55
2021/06/24 08:43:39;;;;;;;1999.90;999.90;;;12.50;99.90;;;;;;6065352;23;20161;-57
2021/06/24 08:46:06;;;;;;;1999.90;999.90;;;12.90;99.90;;;;;;6065305;23;20477;-56
2021/06/24 08:48:36;;;;;;;1999.90;999.90;;;12.90;99.90;;;;;;6065440;23;20200;-45
2021/06/24 08:51:04;;;;;;;1999.90;999.90;;;13.10;99.90;;;;;;6065535;23;20180;-49
2021/06/24 08:53:32;;;;;;;1999.90;999.90;;;13.40;99.90;;;;;;6064790;23;20660;-46
2021/06/24 08:55:59;;;;;;;1999.90;999.90;;;13.60;99.90;;;;;;6066975;23;20171;-56
2021/06/24 08:58:26;;;;;;;1999.90;999.90;;;13.50;99.90;;;;;;6066557;23;20153;-53
2021/06/24 09:00:54;;;;;;;1999.90;999.90;;;13.40;99.90;;;;;;6066784;23;20148;-54
2021/06/24 09:03:22;;;;;;;1999.90;999.90;;;13.30;99.90;;;;;;6067248;23;20243;-53
2021/06/24 09:05:56;;;;;;;1999.90;999.90;;;13.40;99.90;;;;;;6066739;23;20148;-53
2021/06/24 09:08:41;;;;;;;1999.90;999.90;;;13.40;99.90;;;;;;6066616;23;20219;-49
2021/06/24 09:11:14;;;;;;;1999.90;999.90;;;13.60;99.90;;;;;;6066875;23;20192;-43
2021/06/24 09:13:41;;;;;;;1999.90;999.90;;;13.70;99.90;;;;;;6066781;23;20192;-46
2021/06/24 09:16:24;;;;;;;1999.90;999.90;;;14.10;99.90;;;;;;6067215;23;20152;-48
2021/06/24 09:18:51;;;;;;;1999.90;999.90;;;14.60;99.90;;;;;;6066303;23;20197;-48
2021/06/24 09:21:21;;;;;;;1999.90;999.90;;;14.50;99.90;;;;;;6066776;23;20153;-47
2021/06/24 09:23:50;;;;;;;1999.90;999.90;;;14.50;99.90;;;;;;6066814;23;20208;-47
2021/06/24 09:26:17;;;;;;;1999.90;999.90;;;14.40;99.90;;;;;;6066671;23;20161;-46
2021/06/24 09:28:53;;;;;;;1999.90;999.90;;;14.50;99.90;;;;;;6066458;23;20159;-46
2021/06/24 09:31:27;;;;;;;1999.90;999.90;;;14.40;99.90;;;;;;6066646;23;20235;-46
2021/06/24 09:33:55;;;;;;;1999.90;999.90;;;14.30;99.90;;;;;;6066638;23;20145;-44
2021/06/24 09:36:38;;;;;;;1999.90;999.90;;;14.40;99.90;;;;;;6066828;23;20263;-45
2021/06/24 09:39:11;;;;;;;1999.90;999.90;;;14.70;99.90;;;;;;6067000;23;20472;-45
2021/06/24 09:41:54;;;;;;;1999.90;999.90;;;14.90;99.90;;;;;;6066398;23;20603;-50
2021/06/24 09:44:23;;;;;;;1999.90;999.90;;;15.90;99.90;;;;;;6066550;23;20560;-48
2021/06/24 09:46:51;;;;;;;1999.90;999.90;;;16.20;99.90;;;;;;6040903;23;20156;-48
2021/06/24 09:49:30;;;;;;;1999.90;999.90;;;16.40;99.90;;;;;;6041341;23;20159;-53
2021/06/24 09:51:58;;;;;;;1999.90;999.90;;;16.70;99.90;;;;;;6066678;23;20184;-47
2021/06/24 09:54:38;;;;;;;1999.90;999.90;;;16.90;99.90;;;;;;6066335;23;20473;-56
2021/06/24 09:57:06;;;;;;;1999.90;999.90;;;16.80;97.30;;;;;;6066165;23;20149;-47
2021/06/24 09:59:39;;;;;;;1999.90;999.90;;;16.50;99.10;;;;;;6066365;23;20148;-48
2021/06/24 10:02:11;;;;;;;1999.90;999.90;;;16.40;99.30;;;;;;6066788;23;20144;-48
2021/06/24 10:04:42;;;;;;;1999.90;999.90;;;16.60;97.70;;;;;;6066233;23;20138;-49
2021/06/24 10:07:12;;;;;;;1999.90;999.90;;;16.50;96.90;;;;;;6067031;23;20144;-59
2021/06/24 10:09:44;;;;;;;1999.90;999.90;;;16.70;97.80;;;;;;6065942;23;20292;-48
2021/06/24 10:12:14;;;;;;;1999.90;999.90;;;16.60;94.90;;;;;;6066563;23;20185;-50
2021/06/24 10:14:42;;;;;;;1999.90;999.90;;;16.60;96.30;;;;;;6066403;23;20145;-50
2021/06/24 10:17:09;;;;;;;1999.90;999.90;;;16.90;96.00;;;;;;6066573;23;20160;-46
2021/06/24 10:19:39;;;;;;;1999.90;999.90;;;17.10;91.80;;;;;;6066189;23;20172;-48
2021/06/24 10:22:05;;;;;;;1999.90;999.90;;;17.10;91.30;;;;;;6066196;23;20220;-50
2021/06/24 10:24:46;;;;;;;1999.90;999.90;;;17.20;92.90;;;;;;6065981;23;20204;-46
2021/06/24 10:27:17;;;;;;;1999.90;999.90;;;17.10;87.90;;;;;;6066097;23;20141;-47
2021/06/24 10:29:46;;;;;;;1999.90;999.90;;;16.90;83.40;;;;;;6066634;23;20155;-49
2021/06/24 10:32:26;;;;;;;1999.90;999.90;;;17.10;80.80;;;;;;6066003;23;20192;-49
2021/06/24 10:34:53;;;;;;;1999.90;999.90;;;17.80;77.90;;;;;;6066637;23;20580;-57
2021/06/24 10:37:25;;;;;;;1999.90;999.90;;;17.80;69.20;;;;;;6065912;23;20159;-51
2021/06/24 10:40:21;;;;;;;1999.90;999.90;;;17.60;69.80;;;;;;6066508;23;20212;-51
2021/06/24 10:42:59;;;;;;;1999.90;999.90;;;17.40;78.50;;;;;;6066549;23;20149;-56
2021/06/24 10:45:27;;;;;;;1999.90;999.90;;;17.20;81.20;;;;;;6066812;23;20572;-61
2021/06/24 10:47:55;;;;;;;1999.90;999.90;;;17.70;86.10;;;;;;6066372;23;20152;-47
2021/06/24 10:50:31;;;;;;;1999.90;999.90;;;18.60;79.60;;;;;;6066242;23;20196;-44
2021/06/24 10:52:59;;;;;;;1999.90;999.90;;;19.20;76.60;;;;;;6066090;23;20160;-45
2021/06/24 10:55:32;;;;;;;1999.90;999.90;;;19.50;74.70;;;;;;6066232;23;20159;-52
2021/06/24 10:57:59;;;;;;;1999.90;999.90;;;19.80;72.30;;;;;;6066675;23;20487;-57
2021/06/24 11:00:36;;;;;;;1999.90;999.90;;;19.80;75.40;;;;;;6066149;23;20227;-47
2021/06/24 11:03:13;;;;;;;1999.90;999.90;;;19.90;68.10;;;;;;6065715;23;20148;-47
2021/06/24 11:05:42;;;;;;;1999.90;999.90;;;19.90;68.10;;;;;;6066694;23;20145;-47
2021/06/24 11:08:29;;;;;;;1999.90;999.90;;;20.20;66.30;;;;;;6065985;23;20188;-50
2021/06/24 11:11:10;;;;;;;1999.90;999.90;;;19.90;64.80;;;;;;6066027;23;20616;-46
2021/06/24 11:13:37;;;;;;;1999.90;999.90;;;19.30;65.70;;;;;;6065978;23;20521;-59
2021/06/24 11:16:08;;;;;;;1999.90;999.90;;;19.40;72.40;;;;;;6065946;23;20619;-61
2021/06/24 11:18:34;;;;;;;1999.90;999.90;;;19.60;68.40;;;;;;6066000;23;20466;-46
2021/06/24 11:21:03;;;;;;;1999.90;999.90;;;19.70;69.60;;;;;;6066010;23;20580;-60
2021/06/24 11:23:37;;;;;;;1999.90;999.90;;;19.60;62.30;;;;;;6065721;23;20145;-47
2021/06/24 11:26:14;;;;;;;1999.90;999.90;;;19.30;61.30;;;;;;6066273;23;20148;-51
2021/06/24 11:28:52;;;;;;;1999.90;999.90;;;18.70;56.20;;;;;;6040435;23;20156;-51
2021/06/24 11:31:44;;;;;;;1999.90;999.90;;;18.60;60.40;;;;;;6065933;23;20215;-57
2021/06/24 11:37:00;;;;;;;1999.90;999.90;;;18.60;73.50;;;;;;6075896;23;20288;-57
2021/06/24 11:39:28;;;;;;;1999.90;999.90;;;18.50;67.10;;;;;;6065959;23;20137;-64
2021/06/24 11:42:04;;;;;;;1999.90;999.90;;;18.40;70.30;;;;;;6065562;23;20156;-53
2021/06/24 11:44:35;;;;;;;1999.90;999.90;;;18.30;69.60;;;;;;6065741;23;20144;-48
2021/06/24 11:47:08;;;;;;;1999.90;999.90;;;18.50;69.80;;;;;;6066046;23;20198;-51
2021/06/24 12:04:32;;;;;;;1999.90;999.90;;;18.60;68.80;;;;;;6065837;23;20543;-56
2021/06/24 12:07:08;;;;;;;1999.90;999.90;;;19.10;65.00;;;;;;6065228;23;20200;-56
2021/06/24 12:09:52;;;;;;;1999.90;999.90;;;19.50;63.10;;;;;;6065910;23;20144;-55
2021/06/24 12:12:26;;;;;;;1999.90;999.90;;;19.30;56.80;;;;;;6065968;23;20184;-50
2021/06/24 12:14:58;;;;;;;1999.90;999.90;;;19.00;57.90;;;;;;6065709;23;20147;-53
2021/06/24 12:17:28;;;;;;;1999.90;999.90;;;18.60;61.90;;;;;;6065375;23;20157;-57
2021/06/24 12:20:32;;;;;;;1999.90;999.90;;;18.20;61.10;;;;;;6065597;23;20157;-53
2021/06/24 12:23:02;;;;;;;1999.90;999.90;;;18.00;71.10;;;;;;6063156;23;20476;-59
2021/06/24 12:25:34;;;;;;;1999.90;999.90;;;18.00;64.30;;;;;;6060242;23;20208;-53
2021/06/24 12:28:06;;;;;;;1999.90;999.90;;;18.00;63.70;;;;;;6064630;23;20137;-54
2021/06/24 12:30:44;;;;;;;1999.90;999.90;;;18.20;69.40;;;;;;6064380;23;20489;-59